This is the latest recevied weather packets stored in our database for station/object OM8AKX-4. If no packets are shown the sender has not sent any weather packets the latest 10 day(s).
| Time | Temp. | Humidity | Pressure | Rain* | Wind** | Luminosity | Snow |
|---|---|---|---|---|---|---|---|
| 1777550215 | 0.56° C | 50% | 883.7 hPa | - | - | - | - |
| 1777544814 | -0.56° C | 56% | 883.8 hPa | - | - | - | - |
| 1777543914 | -1.11° C | 57% | 883.8 hPa | - | - | - | - |
| 1777543014 | -1.11° C | 57% | 884.1 hPa | - | - | - | - |
| 1777541214 | -1.67° C | 59% | 883.7 hPa | - | - | - | - |
| 1777540314 | -1.67° C | 59% | 884 hPa | - | - | - | - |
| 1777538514 | -2.22° C | 60% | 883.7 hPa | - | - | - | - |
| 1777537614 | -2.22° C | 59% | 883.5 hPa | - | - | - | - |
| 1777536714 | -2.78° C | 62% | 883.5 hPa | - | - | - | - |
| 1777535814 | -3.33° C | 65% | 883.5 hPa | - | - | - | - |
| 1777534013 | -3.33° C | 65% | 883.5 hPa | - | - | - | - |
| 1777533976 | -3.33° C | 65% | 883.5 hPa | - | - | - | - |
| 1777533076 | -3.89° C | 73% | 883.4 hPa | - | - | - | - |
| 1777532176 | -3.89° C | 74% | 883.3 hPa | - | - | - | - |
| 1777531276 | -3.89° C | 77% | 883.5 hPa | - | - | - | - |
| 1777530376 | -3.89° C | 77% | 883.6 hPa | - | - | - | - |
| 1777529476 | -3.89° C | 77% | 883.3 hPa | - | - | - | - |
| 1777528576 | -3.89° C | 72% | 883.6 hPa | - | - | - | - |
| 1777527676 | -2.78° C | 68% | 883.2 hPa | - | - | - | - |
| 1777526776 | -1.67° C | 65% | 883.2 hPa | - | - | - | - |
| 1777525876 | -2.22° C | 69% | 883.4 hPa | - | - | - | - |
| 1777524976 | -2.78° C | 73% | 882.9 hPa | - | - | - | - |
| 1777524076 | -5° C | 93% | 883 hPa | - | - | - | - |
| 1777523176 | -5° C | 83% | 882.9 hPa | - | - | - | - |
| 1777522276 | -2.22° C | 68% | 882.8 hPa | - | - | - | - |
* Rain since midnight (hover to see other rain measurements)
** Current wind speed in m/s (hover to see current wind gust speed)